Time;durP1;ratioP1;P1;durP2;ratioP2;P2;SDS_P1;SDS_P2;PMS_P1;PMS_P2;Temp;Humidity;BMP_temperature;BMP_pressure;BME280_temperature;BME280_humidity;BME280_pressure;Samples;Min_cycle;Max_cycle;Signal;HPM_P1;HPM_P2
2023/06/22 00:03:30;;;;;;;4.07;2.88;;;23.40;56.30;;;;;;5111193;28;20582;-79
2023/06/22 00:14:03;;;;;;;3.90;2.80;;;23.40;56.30;;;;;;5105592;28;20259;-79
2023/06/22 00:16:30;;;;;;;4.00;2.95;;;23.40;56.40;;;;;;5074125;28;20221;-78
2023/06/22 00:19:02;;;;;;;4.68;2.95;;;23.40;56.30;;;;;;5091302;28;20224;-79
2023/06/22 00:21:30;;;;;;;3.17;2.67;;;23.30;56.30;;;;;;5074059;28;20194;-78
2023/06/22 00:23:57;;;;;;;3.55;2.90;;;23.40;56.30;;;;;;5101553;28;20229;-79
2023/06/22 00:26:24;;;;;;;7.10;2.80;;;23.30;56.20;;;;;;5114639;28;20638;-79
2023/06/22 00:28:53;;;;;;;3.10;2.80;;;23.30;56.30;;;;;;5096989;28;20274;-79
2023/06/22 00:31:30;;;;;;;3.97;2.80;;;23.30;56.20;;;;;;5088542;28;20197;-78
2023/06/22 00:34:06;;;;;;;3.40;2.78;;;23.30;56.20;;;;;;5115225;28;20217;-79
2023/06/22 00:36:34;;;;;;;3.25;2.75;;;23.30;56.30;;;;;;5115447;28;20231;-79
2023/06/22 00:41:42;;;;;;;4.55;2.92;;;23.30;56.30;;;;;;5135511;27;20288;-79
2023/06/22 00:44:10;;;;;;;4.85;3.42;;;23.30;56.30;;;;;;5135405;27;20599;-79
2023/06/22 00:46:40;;;;;;;3.30;3.00;;;23.30;56.30;;;;;;5135560;27;20281;-79
2023/06/22 00:51:48;;;;;;;3.58;2.97;;;23.30;56.30;;;;;;5134984;27;20192;-78
2023/06/22 00:54:15;;;;;;;3.88;2.90;;;23.30;56.30;;;;;;5134125;27;20252;-79
2023/06/22 00:56:47;;;;;;;3.25;2.47;;;23.30;56.30;;;;;;5130081;27;20283;-79
2023/06/22 00:59:18;;;;;;;3.17;2.80;;;23.30;56.30;;;;;;5116579;27;20213;-78
2023/06/22 01:10:21;;;;;;;4.25;3.08;;;23.30;56.30;;;;;;5133563;27;20269;-78
2023/06/22 01:12:53;;;;;;;3.95;2.78;;;23.30;56.30;;;;;;5134698;27;20231;-82
2023/06/22 01:15:24;;;;;;;4.72;2.65;;;23.20;56.30;;;;;;5083995;27;20664;-79
2023/06/22 01:18:25;;;;;;;3.47;3.10;;;23.20;56.30;;;;;;5116639;27;20271;-79
2023/06/22 01:21:11;;;;;;;3.30;2.83;;;23.20;56.20;;;;;;5134254;27;20642;-79
2023/06/22 01:23:56;;;;;;;3.58;2.75;;;23.20;56.30;;;;;;5134839;27;20236;-78
2023/06/22 01:32:01;;;;;;;4.03;2.75;;;23.30;56.40;;;;;;5133855;27;20199;-79
2023/06/22 01:34:32;;;;;;;3.17;2.80;;;23.20;56.30;;;;;;5099507;27;20215;-79
2023/06/22 01:37:01;;;;;;;4.28;2.70;;;23.20;56.30;;;;;;5114564;27;20200;-79
2023/06/22 01:39:31;;;;;;;4.43;3.00;;;23.20;56.20;;;;;;5134737;27;20277;-78
2023/06/22 01:41:59;;;;;;;3.30;2.80;;;23.20;56.30;;;;;;5133362;27;20643;-79
2023/06/22 01:44:43;;;;;;;3.35;2.72;;;23.20;56.30;;;;;;5134749;27;20217;-78
2023/06/22 01:49:52;;;;;;;3.85;2.97;;;23.10;56.20;;;;;;5133663;27;20227;-81
2023/06/22 01:52:20;;;;;;;3.15;2.58;;;23.20;56.30;;;;;;5116194;27;20370;-79
2023/06/22 01:55:04;;;;;;;3.70;2.88;;;23.10;56.20;;;;;;5117361;27;20806;-79
2023/06/22 01:57:33;;;;;;;3.58;2.80;;;23.10;56.20;;;;;;5134643;27;20201;-79
2023/06/22 02:02:55;;;;;;;4.28;2.90;;;23.10;56.20;;;;;;5132995;27;20207;-79
2023/06/22 02:08:10;;;;;;;3.25;2.95;;;23.10;56.20;;;;;;5133136;27;20216;-79
2023/06/22 02:10:38;;;;;;;3.97;2.90;;;23.10;56.20;;;;;;5115697;27;20188;-78
2023/06/22 02:13:09;;;;;;;3.80;3.08;;;23.10;56.20;;;;;;5115460;27;20219;-78
2023/06/22 02:15:37;;;;;;;3.22;2.90;;;23.10;56.20;;;;;;5134108;27;20184;-78
2023/06/22 02:18:05;;;;;;;4.15;2.80;;;23.10;56.20;;;;;;5133780;27;20620;-78
2023/06/22 02:20:32;;;;;;;3.55;2.92;;;23.10;56.20;;;;;;5133241;27;20311;-78
2023/06/22 02:23:00;;;;;;;3.65;2.85;;;23.10;56.20;;;;;;5114885;27;20200;-79
2023/06/22 02:25:28;;;;;;;3.40;2.88;;;23.10;56.20;;;;;;5133490;27;20700;-79
2023/06/22 02:27:55;;;;;;;2.95;2.60;;;23.10;56.20;;;;;;5133967;27;20312;-78
2023/06/22 02:30:26;;;;;;;2.97;2.55;;;23.10;56.50;;;;;;5093909;28;20298;-78
2023/06/22 02:32:59;;;;;;;3.17;2.83;;;23.10;56.20;;;;;;5118682;27;20272;-79
2023/06/22 02:35:31;;;;;;;3.45;2.58;;;23.10;56.20;;;;;;5115241;27;20257;-78
2023/06/22 02:40:40;;;;;;;4.55;2.90;;;23.10;56.20;;;;;;5133279;27;20200;-78
2023/06/22 02:43:07;;;;;;;5.88;3.20;;;23.10;56.20;;;;;;5115097;27;20196;-79
2023/06/22 02:45:36;;;;;;;4.30;2.90;;;23.00;56.10;;;;;;5133137;27;20279;-79
2023/06/22 02:48:08;;;;;;;4.68;2.80;;;23.00;56.10;;;;;;5132844;27;20760;-78
2023/06/22 02:50:35;;;;;;;3.90;3.00;;;23.00;56.10;;;;;;5113592;27;20227;-79
2023/06/22 02:53:02;;;;;;;3.70;2.90;;;23.00;56.10;;;;;;5133246;27;20217;-79
2023/06/22 02:55:30;;;;;;;3.78;2.70;;;23.00;56.10;;;;;;5132684;27;20185;-79
2023/06/22 02:57:59;;;;;;;4.38;2.70;;;23.00;56.10;;;;;;5114704;28;20242;-79
2023/06/22 03:00:30;;;;;;;2.85;2.53;;;23.00;56.10;;;;;;5133207;27;20215;-78
2023/06/22 03:02:59;;;;;;;3.55;2.80;;;23.00;56.10;;;;;;5115307;27;20241;-79
2023/06/22 03:05:28;;;;;;;3.58;2.53;;;23.00;56.10;;;;;;5114923;28;20273;-79
2023/06/22 03:13:23;;;;;;;3.25;2.80;;;23.00;56.10;;;;;;5116571;28;20198;-79
2023/06/22 03:15:50;;;;;;;3.15;2.85;;;23.00;56.20;;;;;;5133067;28;20268;-79
2023/06/22 03:18:18;;;;;;;2.78;2.53;;;23.00;56.20;;;;;;5132913;28;20224;-78
2023/06/22 03:20:47;;;;;;;3.15;2.85;;;23.00;56.20;;;;;;5132920;28;20241;-78
2023/06/22 03:23:17;;;;;;;3.53;2.97;;;23.00;56.20;;;;;;5131895;28;20259;-78
2023/06/22 03:25:49;;;;;;;3.78;2.70;;;23.00;56.20;;;;;;5114512;28;20201;-78
2023/06/22 03:28:17;;;;;;;4.35;2.70;;;23.00;56.20;;;;;;5114386;28;20704;-79
2023/06/22 03:30:44;;;;;;;3.65;2.95;;;23.00;56.20;;;;;;5080606;28;20203;-78
2023/06/22 03:33:11;;;;;;;3.75;2.85;;;23.00;56.20;;;;;;5132639;28;20287;-79
2023/06/22 03:35:39;;;;;;;3.58;2.78;;;23.00;56.20;;;;;;5132914;28;20276;-79
2023/06/22 03:38:08;;;;;;;3.25;2.95;;;23.00;56.20;;;;;;5132139;28;20227;-78
2023/06/22 03:40:35;;;;;;;4.45;3.30;;;23.00;56.20;;;;;;5132467;28;20271;-78
2023/06/22 03:43:03;;;;;;;2.78;2.45;;;23.00;56.20;;;;;;5114240;28;20249;-78
2023/06/22 03:45:30;;;;;;;3.25;2.92;;;23.00;56.20;;;;;;5132942;28;20248;-79
2023/06/22 03:47:58;;;;;;;3.33;2.83;;;23.00;56.20;;;;;;5113646;28;20732;-78
2023/06/22 03:50:25;;;;;;;4.25;3.05;;;23.00;56.20;;;;;;5132658;28;20263;-79
2023/06/22 03:52:52;;;;;;;3.10;2.80;;;23.00;56.20;;;;;;5132274;28;20279;-79
2023/06/22 03:55:22;;;;;;;3.63;2.65;;;22.90;56.10;;;;;;5131501;28;20240;-78
2023/06/22 03:57:53;;;;;;;3.30;2.83;;;22.90;56.10;;;;;;5063139;28;20192;-78
2023/06/22 04:00:20;;;;;;;3.92;2.90;;;22.90;56.10;;;;;;5133037;27;20285;-78
2023/06/22 04:02:49;;;;;;;4.72;3.05;;;22.90;56.10;;;;;;5118067;27;20199;-79
2023/06/22 04:05:17;;;;;;;3.05;2.53;;;22.90;56.10;;;;;;5136546;27;20792;-79
2023/06/22 04:07:44;;;;;;;3.53;3.15;;;22.90;56.10;;;;;;5136179;27;20228;-79
2023/06/22 04:10:12;;;;;;;4.32;3.00;;;22.90;56.20;;;;;;5136672;27;20299;-79
2023/06/22 04:12:40;;;;;;;5.00;2.90;;;22.90;56.20;;;;;;5136256;27;20275;-78
2023/06/22 04:15:09;;;;;;;5.07;3.15;;;22.90;56.20;;;;;;5135710;27;20307;-82
2023/06/22 04:17:36;;;;;;;4.45;3.00;;;22.90;56.20;;;;;;5135229;27;20220;-78
2023/06/22 04:20:05;;;;;;;4.00;3.03;;;22.90;56.20;;;;;;5136689;27;20304;-79
2023/06/22 04:22:32;;;;;;;3.63;2.95;;;22.90;56.20;;;;;;5135902;27;20196;-78
2023/06/22 04:25:00;;;;;;;3.42;3.10;;;22.90;56.20;;;;;;5134993;27;20691;-78
2023/06/22 04:27:27;;;;;;;2.97;2.67;;;22.90;56.20;;;;;;5136417;27;20283;-78
2023/06/22 04:30:14;;;;;;;4.45;3.15;;;22.90;56.20;;;;;;5135424;27;20284;-79
2023/06/22 04:35:23;;;;;;;3.45;2.95;;;22.90;56.20;;;;;;5134975;27;20216;-79
2023/06/22 04:37:54;;;;;;;3.92;3.25;;;22.80;56.20;;;;;;5135126;27;20180;-79
2023/06/22 04:40:22;;;;;;;3.15;2.65;;;22.80;56.10;;;;;;5136005;27;20245;-80
2023/06/22 04:42:53;;;;;;;5.25;3.35;;;22.90;56.20;;;;;;5135345;27;20275;-78
2023/06/22 04:45:22;;;;;;;3.78;3.10;;;22.90;56.20;;;;;;5117490;27;20218;-79
2023/06/22 04:47:50;;;;;;;4.32;3.20;;;22.80;56.20;;;;;;5134557;27;20279;-79
2023/06/22 04:50:17;;;;;;;4.20;2.83;;;22.80;56.20;;;;;;5135799;27;20311;-79
2023/06/22 04:52:45;;;;;;;3.85;3.35;;;22.80;56.20;;;;;;5134631;27;20247;-79
2023/06/22 04:55:12;;;;;;;3.90;3.10;;;22.80;56.20;;;;;;5117272;27;20216;-78
2023/06/22 04:57:39;;;;;;;3.42;2.88;;;22.80;56.20;;;;;;5135500;27;20224;-78
2023/06/22 05:00:16;;;;;;;3.65;3.00;;;22.80;56.10;;;;;;5134932;27;20590;-78
2023/06/22 05:02:47;;;;;;;5.65;3.30;;;22.80;56.20;;;;;;5118670;27;20265;-78
2023/06/22 05:08:00;;;;;;;3.90;3.10;;;22.80;56.20;;;;;;5135099;27;20542;-78
2023/06/22 05:10:28;;;;;;;4.93;3.08;;;22.80;56.20;;;;;;5135508;27;20551;-78
2023/06/22 05:12:56;;;;;;;4.57;2.90;;;22.80;56.80;;;;;;5133731;27;20275;-78
2023/06/22 05:15:27;;;;;;;3.38;2.75;;;22.90;56.90;;;;;;5135167;27;20298;-79
2023/06/22 05:17:58;;;;;;;4.35;3.10;;;22.80;56.20;;;;;;5134130;27;20220;-78
2023/06/22 05:23:06;;;;;;;3.35;2.92;;;22.80;56.20;;;;;;5135100;27;20232;-78
2023/06/22 05:25:33;;;;;;;4.93;2.80;;;22.80;56.20;;;;;;5134187;27;20234;-78
2023/06/22 05:28:11;;;;;;;3.95;3.22;;;22.80;56.20;;;;;;5116572;27;20200;-78
2023/06/22 05:33:39;;;;;;;4.68;2.85;;;22.80;56.20;;;;;;5117010;27;20203;-78
2023/06/22 05:44:12;;;;;;;4.10;2.75;;;22.80;56.30;;;;;;5134870;27;20216;-78
2023/06/22 05:46:44;;;;;;;5.50;2.92;;;22.80;56.30;;;;;;5134173;27;20280;-78
2023/06/22 05:52:38;;;;;;;5.47;3.13;;;22.80;56.30;;;;;;5130551;27;20203;-78
2023/06/22 05:55:13;;;;;;;4.28;2.95;;;22.80;56.30;;;;;;5115542;27;20298;-79
2023/06/22 05:57:40;;;;;;;3.38;2.88;;;22.80;56.90;;;;;;5133818;27;20216;-78
2023/06/22 06:00:11;;;;;;;5.47;2.97;;;22.80;56.30;;;;;;5116200;27;20223;-79
2023/06/22 06:02:43;;;;;;;3.83;2.70;;;22.80;56.30;;;;;;5133244;27;20207;-78
2023/06/22 06:05:11;;;;;;;4.07;3.00;;;22.80;56.30;;;;;;5134539;27;20645;-78
2023/06/22 06:08:08;;;;;;;3.45;2.72;;;22.80;56.30;;;;;;5134158;27;20213;-78
2023/06/22 06:10:37;;;;;;;3.92;2.72;;;22.80;56.30;;;;;;5133280;27;20299;-79
2023/06/22 06:13:05;;;;;;;3.67;2.85;;;22.80;56.30;;;;;;5133439;27;20272;-78
2023/06/22 06:15:33;;;;;;;3.20;2.90;;;22.80;56.30;;;;;;5115431;27;20213;-79
2023/06/22 06:18:00;;;;;;;3.63;3.00;;;22.80;56.30;;;;;;5133728;27;20283;-78
2023/06/22 06:20:29;;;;;;;3.85;2.78;;;22.80;56.30;;;;;;5127975;27;20299;-78
2023/06/22 06:28:21;;;;;;;4.07;2.88;;;22.80;56.40;;;;;;5133003;27;20196;-79
2023/06/22 06:33:31;;;;;;;4.25;2.83;;;22.80;56.40;;;;;;5131863;27;20196;-79
2023/06/22 06:36:03;;;;;;;5.88;2.92;;;22.80;56.40;;;;;;5133474;27;20195;-78
2023/06/22 06:38:34;;;;;;;3.80;3.08;;;22.80;56.40;;;;;;5106151;28;20193;-78
2023/06/22 06:43:45;;;;;;;4.65;3.55;;;22.80;56.40;;;;;;5111359;28;20208;-78
2023/06/22 06:46:12;;;;;;;4.03;3.10;;;22.90;56.40;;;;;;5113426;27;20223;-78
2023/06/22 06:48:39;;;;;;;3.88;3.10;;;23.00;56.50;;;;;;5131626;27;20306;-78
2023/06/22 06:51:09;;;;;;;4.38;2.75;;;23.00;56.40;;;;;;5073869;28;20225;-77
2023/06/22 06:53:37;;;;;;;5.20;3.50;;;23.10;56.30;;;;;;5111574;28;20280;-78
2023/06/22 06:56:06;;;;;;;4.40;3.47;;;23.20;56.30;;;;;;5093543;28;20186;-78
2023/06/22 06:58:34;;;;;;;3.55;3.05;;;23.20;56.20;;;;;;5111589;28;20633;-79
2023/06/22 07:01:05;;;;;;;5.20;3.15;;;23.30;56.20;;;;;;5122655;27;20198;-79
2023/06/22 07:03:33;;;;;;;5.30;3.30;;;23.30;56.00;;;;;;5109130;27;20200;-79
2023/06/22 07:06:01;;;;;;;4.32;3.55;;;23.30;56.00;;;;;;5081148;28;20197;-78
2023/06/22 07:08:28;;;;;;;4.05;3.03;;;23.40;56.00;;;;;;5104545;28;20808;-79
2023/06/22 07:10:56;;;;;;;4.43;3.50;;;23.40;56.00;;;;;;5103508;28;20266;-79
2023/06/22 07:13:25;;;;;;;3.65;3.10;;;23.50;56.10;;;;;;5098756;28;20328;-78
2023/06/22 07:15:53;;;;;;;3.33;2.90;;;23.50;56.70;;;;;;5079739;28;20196;-77
2023/06/22 07:18:21;;;;;;;10.13;3.33;;;23.60;56.10;;;;;;5113671;28;20230;-80
2023/06/22 07:37:46;;;;;;;6.53;3.47;;;23.80;56.30;;;;;;4787151;29;20270;-75
2023/06/22 07:40:14;;;;;;;13.88;3.80;;;23.80;56.20;;;;;;4792595;29;20245;-76
2023/06/22 07:42:41;;;;;;;11.55;2.95;;;23.80;56.20;;;;;;4798857;29;20230;-75
2023/06/22 07:45:09;;;;;;;4.45;3.30;;;23.90;56.30;;;;;;4791814;29;20477;-76
2023/06/22 07:47:36;;;;;;;4.97;3.30;;;23.90;56.40;;;;;;4806417;29;20295;-76
2023/06/22 07:50:04;;;;;;;7.72;3.38;;;23.90;56.40;;;;;;4840967;29;20277;-85
2023/06/22 07:52:32;;;;;;;5.22;2.90;;;23.90;56.40;;;;;;4839820;29;20287;-87
2023/06/22 07:55:02;;;;;;;4.03;3.05;;;23.90;56.40;;;;;;4856679;29;20730;-86
2023/06/22 07:57:33;;;;;;;4.75;3.13;;;24.00;56.50;;;;;;4864245;29;20205;-87
2023/06/22 08:00:00;;;;;;;3.67;3.10;;;24.00;56.50;;;;;;4891005;29;20313;-84
2023/06/22 08:02:27;;;;;;;6.15;3.50;;;24.00;56.40;;;;;;4898386;29;20333;-80
2023/06/22 08:04:54;;;;;;;4.00;3.03;;;24.00;56.30;;;;;;4939765;28;20308;-84
2023/06/22 08:07:24;;;;;;;11.38;3.03;;;24.00;56.30;;;;;;5005035;28;20353;-88
2023/06/22 08:09:51;;;;;;;3.78;2.92;;;24.00;56.40;;;;;;4994267;28;20709;-83
2023/06/22 08:12:21;;;;;;;6.35;3.63;;;24.10;56.50;;;;;;5002971;28;20232;-81
2023/06/22 08:14:51;;;;;;;9.40;3.47;;;24.10;56.40;;;;;;5008790;28;20235;-80
2023/06/22 08:17:18;;;;;;;4.50;3.10;;;24.10;56.50;;;;;;4991814;28;20202;-83
2023/06/22 08:19:45;;;;;;;7.45;3.30;;;24.10;56.50;;;;;;4990263;28;20253;-84
2023/06/22 08:22:12;;;;;;;15.32;3.10;;;24.10;56.50;;;;;;5011160;28;20228;-87
2023/06/22 08:24:39;;;;;;;5.75;3.15;;;24.10;56.40;;;;;;5026365;28;20274;-91
2023/06/22 08:27:09;;;;;;;9.30;3.17;;;24.10;56.40;;;;;;5060328;27;20197;-85
2023/06/22 08:29:39;;;;;;;7.63;3.20;;;24.10;56.30;;;;;;5114006;27;20231;-84
2023/06/22 08:32:07;;;;;;;5.63;3.20;;;24.20;56.50;;;;;;5130322;27;20320;-87
2023/06/22 08:34:36;;;;;;;6.95;3.17;;;24.10;56.30;;;;;;5127873;27;20216;-78
2023/06/22 08:37:06;;;;;;;5.00;3.08;;;24.10;56.30;;;;;;5122329;27;20283;-89
2023/06/22 08:39:55;;;;;;;4.18;3.10;;;24.20;56.40;;;;;;5128566;27;20217;-88
2023/06/22 08:42:23;;;;;;;8.40;3.28;;;24.20;56.30;;;;;;5125520;27;20335;-87
2023/06/22 08:44:51;;;;;;;11.55;3.47;;;24.20;56.30;;;;;;5125302;27;20273;-81
2023/06/22 08:47:20;;;;;;;4.38;3.70;;;24.20;56.30;;;;;;5124957;27;20574;-83
2023/06/22 08:49:47;;;;;;;7.35;3.60;;;24.20;56.30;;;;;;5125762;27;20220;-89
2023/06/22 08:52:14;;;;;;;7.10;4.00;;;24.20;56.30;;;;;;5129605;27;20782;-86
2023/06/22 08:54:41;;;;;;;4.78;3.20;;;24.20;56.30;;;;;;5143761;27;20338;-89
2023/06/22 08:57:09;;;;;;;9.60;3.42;;;24.20;56.30;;;;;;5131016;27;20292;-92
2023/06/22 08:59:36;;;;;;;4.70;3.53;;;24.20;56.20;;;;;;5137567;27;20351;-79
2023/06/22 09:02:06;;;;;;;5.72;3.40;;;24.20;56.20;;;;;;5135389;27;20299;-87
2023/06/22 09:04:34;;;;;;;9.20;3.50;;;24.20;56.20;;;;;;5142865;27;20302;-83
2023/06/22 09:07:01;;;;;;;4.43;3.33;;;24.20;56.20;;;;;;5133645;27;20196;-82
2023/06/22 09:09:28;;;;;;;7.75;3.35;;;24.20;56.20;;;;;;5135740;27;20796;-81
2023/06/22 09:11:55;;;;;;;14.27;3.58;;;24.20;56.30;;;;;;5138939;27;20723;-83
2023/06/22 09:16:52;;;;;;;7.50;3.55;;;24.20;56.50;;;;;;5004985;28;20237;-81
2023/06/22 09:19:21;;;;;;;5.07;3.30;;;24.20;56.60;;;;;;5007378;28;20686;-79
2023/06/22 09:21:48;;;;;;;6.60;3.80;;;24.20;56.80;;;;;;4986515;28;20202;-79
2023/06/22 09:24:17;;;;;;;7.53;4.13;;;24.20;57.40;;;;;;4988188;28;20210;-89
2023/06/22 09:26:44;;;;;;;8.48;4.00;;;24.30;57.80;;;;;;4988996;28;20221;-82
2023/06/22 09:29:11;;;;;;;5.03;3.60;;;24.20;57.90;;;;;;4999315;28;20216;-82
2023/06/22 09:31:39;;;;;;;5.65;3.78;;;24.20;58.00;;;;;;5008139;28;20227;-80
2023/06/22 09:34:05;;;;;;;7.10;3.83;;;24.20;58.10;;;;;;5008571;28;20209;-83
2023/06/22 09:36:34;;;;;;;8.38;4.13;;;24.30;58.20;;;;;;5007851;28;20320;-75
2023/06/22 09:39:22;;;;;;;8.35;3.75;;;24.30;58.20;;;;;;5012974;28;20219;-91
2023/06/22 09:41:49;;;;;;;12.95;4.20;;;24.30;58.10;;;;;;5007296;28;20279;-84
2023/06/22 09:44:16;;;;;;;15.77;4.40;;;24.30;57.90;;;;;;5009154;28;20713;-85
2023/06/22 09:46:43;;;;;;;13.98;4.35;;;24.30;57.90;;;;;;5006429;28;20320;-85
2023/06/22 09:49:10;;;;;;;12.60;4.60;;;24.30;58.50;;;;;;5006794;28;20266;-89
2023/06/22 09:51:39;;;;;;;16.92;4.88;;;24.30;57.90;;;;;;5007423;28;20227;-84
2023/06/22 09:54:06;;;;;;;13.25;4.82;;;24.30;57.90;;;;;;5007229;28;20292;-78
2023/06/22 09:56:33;;;;;;;11.15;3.92;;;24.30;57.80;;;;;;5010262;28;20264;-91
2023/06/22 09:59:00;;;;;;;19.38;4.40;;;24.30;57.80;;;;;;5010052;28;20197;-86
2023/06/22 10:01:27;;;;;;;19.33;4.60;;;24.40;57.90;;;;;;5010463;28;20251;-86
2023/06/22 10:03:56;;;;;;;16.85;4.38;;;24.40;57.90;;;;;;5009112;28;20215;-86
2023/06/22 10:06:24;;;;;;;9.80;3.85;;;24.40;57.90;;;;;;5007793;28;20221;-83
2023/06/22 10:08:53;;;;;;;19.15;4.55;;;24.40;57.80;;;;;;5007178;28;20203;-84
2023/06/22 10:11:20;;;;;;;12.88;4.50;;;24.40;57.70;;;;;;5007728;28;20726;-82
2023/06/22 10:13:47;;;;;;;10.18;3.88;;;24.40;57.70;;;;;;5004788;28;20281;-84
2023/06/22 10:16:14;;;;;;;15.70;4.05;;;24.40;57.70;;;;;;5006897;28;20360;-83
2023/06/22 10:18:41;;;;;;;7.80;3.80;;;24.40;57.70;;;;;;5007319;28;20296;-84
2023/06/22 10:21:08;;;;;;;14.90;4.40;;;24.40;57.60;;;;;;5007445;28;20239;-84
2023/06/22 10:23:35;;;;;;;7.22;3.70;;;24.40;57.50;;;;;;5007455;28;20201;-76
2023/06/22 10:26:04;;;;;;;10.35;4.60;;;24.40;57.50;;;;;;5006047;28;20235;-84
2023/06/22 10:28:31;;;;;;;10.18;3.70;;;24.40;57.40;;;;;;5006759;28;20288;-84
2023/06/22 10:30:57;;;;;;;6.32;3.90;;;24.40;57.40;;;;;;5006374;28;20310;-84
2023/06/22 10:33:25;;;;;;;7.32;3.97;;;24.40;57.40;;;;;;5007881;28;20308;-84
2023/06/22 10:35:52;;;;;;;9.70;4.25;;;24.30;57.30;;;;;;5007108;28;20220;-77
2023/06/22 10:38:19;;;;;;;7.43;4.03;;;24.30;57.30;;;;;;5007390;28;20606;-84
2023/06/22 10:40:46;;;;;;;6.65;4.05;;;24.30;57.30;;;;;;5006471;28;20317;-82
2023/06/22 10:43:14;;;;;;;11.75;4.05;;;24.30;57.30;;;;;;5007317;28;20189;-84
2023/06/22 10:45:41;;;;;;;7.72;3.97;;;24.30;57.20;;;;;;5006709;28;20316;-83
2023/06/22 10:48:08;;;;;;;5.15;3.92;;;24.30;57.20;;;;;;5007332;28;20279;-82
2023/06/22 10:50:35;;;;;;;7.30;3.90;;;24.30;57.20;;;;;;5008550;28;20327;-83
2023/06/22 10:53:02;;;;;;;5.63;4.20;;;24.30;57.20;;;;;;5007496;28;20635;-84
2023/06/22 10:55:29;;;;;;;6.72;4.43;;;24.30;57.20;;;;;;5006789;28;20233;-82
2023/06/22 10:57:56;;;;;;;4.43;4.00;;;24.30;57.30;;;;;;5002741;28;20260;-82
2023/06/22 11:00:25;;;;;;;7.55;4.20;;;24.30;57.20;;;;;;5004799;28;20224;-84
2023/06/22 11:02:51;;;;;;;6.20;3.80;;;24.30;57.20;;;;;;5005426;28;20208;-82
2023/06/22 11:05:18;;;;;;;7.90;4.75;;;24.30;57.20;;;;;;5005781;28;22021;-84
2023/06/22 11:07:46;;;;;;;6.28;4.30;;;24.30;57.20;;;;;;5004848;28;20287;-83
2023/06/22 11:10:13;;;;;;;5.88;4.28;;;24.30;57.20;;;;;;5004182;28;20233;-75
2023/06/22 11:12:42;;;;;;;9.85;4.57;;;24.30;57.10;;;;;;5004845;28;20231;-76
2023/06/22 11:15:10;;;;;;;5.93;4.57;;;24.30;57.20;;;;;;5004145;28;20332;-89
2023/06/22 11:17:38;;;;;;;7.97;4.15;;;24.20;57.10;;;;;;5008598;28;20239;-86
2023/06/22 11:20:10;;;;;;;6.47;4.18;;;24.30;57.20;;;;;;5005583;28;20721;-81
2023/06/22 11:22:39;;;;;;;7.13;4.43;;;24.30;57.20;;;;;;5002735;28;20215;-83
2023/06/22 11:25:07;;;;;;;6.28;4.25;;;24.30;57.30;;;;;;5005890;28;20868;-84
2023/06/22 11:27:34;;;;;;;7.57;4.18;;;24.30;57.30;;;;;;5007054;28;20189;-85
2023/06/22 11:30:01;;;;;;;6.05;4.35;;;24.20;57.20;;;;;;5008162;28;20226;-84
2023/06/22 11:32:28;;;;;;;6.60;4.15;;;24.20;57.20;;;;;;5009163;28;20239;-83
2023/06/22 11:34:56;;;;;;;7.32;4.47;;;24.30;57.20;;;;;;5008812;28;20197;-84
2023/06/22 11:37:23;;;;;;;5.47;4.60;;;24.20;57.20;;;;;;5005794;28;20220;-79
2023/06/22 11:39:50;;;;;;;6.63;4.30;;;24.20;57.20;;;;;;5003677;28;20263;-78
2023/06/22 11:42:17;;;;;;;5.65;4.65;;;24.20;57.10;;;;;;5004783;28;20299;-75
2023/06/22 11:44:45;;;;;;;8.07;4.25;;;24.20;57.10;;;;;;5004887;28;20204;-79
2023/06/22 11:47:12;;;;;;;5.03;4.35;;;24.30;57.20;;;;;;5005016;28;20327;-78
2023/06/22 11:49:39;;;;;;;5.15;4.22;;;24.20;57.10;;;;;;5005533;28;20205;-79
2023/06/22 11:52:08;;;;;;;6.30;4.38;;;24.30;57.20;;;;;;5005269;28;20239;-78
2023/06/22 11:54:35;;;;;;;6.40;5.07;;;24.30;57.10;;;;;;5005366;28;20272;-77
2023/06/22 11:57:02;;;;;;;6.32;4.70;;;24.30;57.10;;;;;;5005247;28;20227;-80
2023/06/22 11:59:29;;;;;;;6.03;4.55;;;24.30;57.10;;;;;;4998702;28;20663;-78
2023/06/22 12:01:58;;;;;;;5.03;4.53;;;24.30;57.10;;;;;;5003685;28;20324;-79
2023/06/22 12:04:25;;;;;;;5.35;4.43;;;24.30;57.20;;;;;;5002935;28;20217;-78
2023/06/22 12:06:52;;;;;;;7.70;4.65;;;24.30;57.20;;;;;;5004496;28;20328;-77
2023/06/22 12:09:20;;;;;;;5.70;3.97;;;24.30;57.30;;;;;;5003362;28;20762;-77
2023/06/22 12:11:47;;;;;;;6.07;4.47;;;24.30;57.90;;;;;;5004246;28;20320;-76
2023/06/22 12:14:14;;;;;;;5.78;4.95;;;24.30;57.30;;;;;;5003553;28;20204;-75
2023/06/22 12:16:42;;;;;;;5.57;4.55;;;24.30;57.30;;;;;;5003939;28;20327;-78
2023/06/22 12:19:09;;;;;;;5.90;5.28;;;24.30;57.20;;;;;;5004119;28;20582;-76
2023/06/22 12:21:37;;;;;;;5.65;4.68;;;24.30;57.30;;;;;;5005278;28;20231;-78
2023/06/22 12:24:04;;;;;;;5.53;4.57;;;24.30;57.30;;;;;;5008072;28;20196;-81
2023/06/22 12:26:33;;;;;;;7.32;4.45;;;24.30;57.40;;;;;;5006954;28;20305;-79
2023/06/22 12:29:00;;;;;;;12.07;4.90;;;24.30;57.40;;;;;;5007371;28;20205;-75
2023/06/22 12:31:27;;;;;;;5.53;4.45;;;24.30;57.40;;;;;;5007568;28;20312;-79
2023/06/22 12:33:54;;;;;;;5.47;4.30;;;24.30;57.40;;;;;;5007217;28;20292;-81
2023/06/22 12:36:21;;;;;;;6.13;4.90;;;24.30;57.40;;;;;;5006884;28;20235;-76
2023/06/22 12:38:48;;;;;;;6.55;4.60;;;24.30;57.40;;;;;;5007402;28;20232;-77
2023/06/22 12:41:15;;;;;;;7.68;4.15;;;24.40;57.40;;;;;;5007376;28;20221;-77
2023/06/22 12:43:44;;;;;;;8.60;4.28;;;24.40;57.20;;;;;;5007318;28;20280;-79
2023/06/22 12:46:10;;;;;;;5.70;4.82;;;24.50;57.20;;;;;;5007540;28;20228;-76
2023/06/22 12:48:42;;;;;;;6.45;4.72;;;24.50;57.10;;;;;;5007317;28;20283;-77
2023/06/22 12:51:10;;;;;;;6.28;4.57;;;24.60;57.00;;;;;;5007891;28;20232;-78
2023/06/22 12:53:37;;;;;;;5.13;4.63;;;24.60;56.70;;;;;;4998004;28;22509;-76
2023/06/22 12:56:04;;;;;;;5.47;4.60;;;24.60;56.70;;;;;;5001730;28;20332;-76
2023/06/22 12:58:31;;;;;;;5.97;4.35;;;24.70;56.70;;;;;;5004714;28;20193;-77
2023/06/22 13:00:59;;;;;;;6.15;4.57;;;24.70;56.60;;;;;;5006567;28;20311;-75
2023/06/22 13:03:27;;;;;;;7.03;4.10;;;24.70;56.40;;;;;;5005907;28;21568;-78
2023/06/22 13:05:54;;;;;;;6.38;4.28;;;24.80;56.30;;;;;;5006285;28;20236;-77
2023/06/22 13:08:22;;;;;;;7.32;4.28;;;24.80;56.30;;;;;;5005953;28;20554;-79
2023/06/22 13:10:49;;;;;;;5.07;4.32;;;24.80;56.20;;;;;;4999488;28;20221;-79
2023/06/22 13:13:16;;;;;;;5.90;4.28;;;24.80;56.20;;;;;;5006729;28;20283;-76
2023/06/22 13:15:43;;;;;;;5.88;4.20;;;24.80;56.10;;;;;;5002730;28;20299;-78
2023/06/22 13:18:11;;;;;;;5.22;4.57;;;24.90;56.20;;;;;;5005076;28;20679;-80
2023/06/22 13:20:38;;;;;;;5.90;3.90;;;24.90;56.00;;;;;;5004190;28;20202;-79
2023/06/22 13:23:06;;;;;;;4.78;3.97;;;25.00;56.20;;;;;;5005518;28;20237;-77
2023/06/22 13:25:38;;;;;;;6.10;3.90;;;25.10;56.20;;;;;;5003151;28;20206;-85
2023/06/22 13:28:05;;;;;;;4.45;3.60;;;25.10;56.00;;;;;;5005898;28;20322;-83
2023/06/22 13:30:33;;;;;;;5.45;4.95;;;25.20;55.90;;;;;;4979373;28;20271;-84
2023/06/22 13:33:00;;;;;;;7.53;5.00;;;25.20;55.60;;;;;;5003392;28;20276;-83
2023/06/22 13:35:29;;;;;;;5.88;4.72;;;25.30;55.70;;;;;;4987748;28;20287;-78
2023/06/22 13:37:56;;;;;;;6.30;4.50;;;25.30;55.60;;;;;;4997956;28;20283;-80
2023/06/22 13:40:24;;;;;;;4.80;4.22;;;25.20;55.40;;;;;;5003892;28;20247;-84
2023/06/22 13:42:52;;;;;;;4.47;4.07;;;25.30;55.50;;;;;;4987778;28;20228;-85
2023/06/22 13:45:19;;;;;;;18.40;4.55;;;25.20;55.30;;;;;;5003799;28;20228;-83
2023/06/22 13:47:47;;;;;;;4.97;4.47;;;25.20;55.50;;;;;;5007349;28;20308;-82
2023/06/22 13:50:14;;;;;;;4.57;3.95;;;25.20;55.30;;;;;;4978583;28;20197;-80
2023/06/22 13:52:44;;;;;;;4.38;3.97;;;25.20;56.20;;;;;;5003272;28;20749;-84
2023/06/22 13:55:11;;;;;;;4.88;3.60;;;25.20;55.50;;;;;;5000950;28;20205;-80
2023/06/22 13:57:38;;;;;;;3.90;3.50;;;25.20;55.50;;;;;;4984766;28;20228;-75
2023/06/22 14:00:08;;;;;;;4.13;3.72;;;25.20;55.50;;;;;;4998905;28;20612;-79
2023/06/22 14:02:35;;;;;;;7.43;3.80;;;25.20;55.30;;;;;;5001350;28;20228;-81
2023/06/22 14:05:03;;;;;;;4.13;3.70;;;25.20;55.40;;;;;;5002336;28;20280;-77
2023/06/22 14:07:31;;;;;;;5.63;3.45;;;25.20;55.40;;;;;;5002707;28;20225;-82
2023/06/22 14:10:01;;;;;;;6.90;3.33;;;25.20;55.50;;;;;;5001648;28;20292;-79
2023/06/22 14:12:29;;;;;;;4.15;3.55;;;25.10;55.50;;;;;;4996005;28;20444;-80
2023/06/22 14:14:57;;;;;;;4.05;3.40;;;25.20;55.60;;;;;;4998716;28;20225;-79
2023/06/22 14:17:26;;;;;;;7.70;3.20;;;25.20;55.60;;;;;;5002756;28;20221;-78
2023/06/22 14:19:55;;;;;;;7.00;3.38;;;25.20;55.60;;;;;;5003106;28;20208;-84
2023/06/22 14:22:23;;;;;;;3.40;3.10;;;25.20;55.80;;;;;;5000227;28;20260;-85
2023/06/22 14:24:50;;;;;;;4.65;3.75;;;25.20;55.80;;;;;;5002460;28;20217;-78
2023/06/22 14:27:18;;;;;;;5.65;3.80;;;25.20;55.70;;;;;;5004272;28;20217;-83
2023/06/22 14:29:48;;;;;;;7.60;3.30;;;25.20;55.90;;;;;;4998759;28;20547;-79
2023/06/22 14:32:15;;;;;;;4.82;3.88;;;25.20;55.90;;;;;;5003262;28;20241;-80